sensor_id;sensor_type;location;lat;lon;timestamp;P1;durP1;ratioP1;P2;durP2;ratioP2
63555;SDS011;49700;48.072;7.800;2024-03-23T00:55:15;4.60;;;1.77;;
63555;SDS011;49700;48.072;7.800;2024-03-23T00:57:40;1.70;;;1.50;;
63555;SDS011;49700;48.072;7.800;2024-03-23T01:00:06;1.67;;;1.50;;
63555;SDS011;49700;48.072;7.800;2024-03-23T01:02:32;2.47;;;2.27;;
63555;SDS011;49700;48.072;7.800;2024-03-23T01:04:58;2.30;;;2.10;;
63555;SDS011;49700;48.072;7.800;2024-03-23T01:07:23;2.10;;;1.93;;
63555;SDS011;49700;48.072;7.800;2024-03-23T01:09:48;2.67;;;2.27;;
63555;SDS011;49700;48.072;7.800;2024-03-23T01:12:14;1.97;;;1.37;;
63555;SDS011;49700;48.072;7.800;2024-03-23T01:14:39;2.20;;;2.00;;
63555;SDS011;49700;48.072;7.800;2024-03-23T01:17:05;1.90;;;1.77;;
63555;SDS011;49700;48.072;7.800;2024-03-23T01:19:30;3.17;;;2.10;;
63555;SDS011;49700;48.072;7.800;2024-03-23T01:21:55;2.13;;;1.90;;
63555;SDS011;49700;48.072;7.800;2024-03-23T01:24:21;2.17;;;1.80;;
63555;SDS011;49700;48.072;7.800;2024-03-23T01:26:46;2.73;;;2.33;;
63555;SDS011;49700;48.072;7.800;2024-03-23T01:29:11;1.90;;;1.70;;
63555;SDS011;49700;48.072;7.800;2024-03-23T01:31:37;3.00;;;1.67;;
63555;SDS011;49700;48.072;7.800;2024-03-23T01:34:02;2.30;;;1.63;;
63555;SDS011;49700;48.072;7.800;2024-03-23T01:36:28;2.70;;;2.10;;
63555;SDS011;49700;48.072;7.800;2024-03-23T01:38:53;1.80;;;1.60;;
63555;SDS011;49700;48.072;7.800;2024-03-23T01:41:19;2.40;;;2.20;;
63555;SDS011;49700;48.072;7.800;2024-03-23T01:43:45;2.63;;;2.28;;
63555;SDS011;49700;48.072;7.800;2024-03-23T01:46:10;1.60;;;1.50;;
63555;SDS011;49700;48.072;7.800;2024-03-23T01:48:36;2.80;;;1.60;;
63555;SDS011;49700;48.072;7.800;2024-03-23T01:51:01;1.93;;;1.40;;
63555;SDS011;49700;48.072;7.800;2024-03-23T01:53:27;3.40;;;3.10;;
63555;SDS011;49700;48.072;7.800;2024-03-23T01:55:53;2.20;;;2.00;;
63555;SDS011;49700;48.072;7.800;2024-03-23T01:58:19;1.70;;;1.60;;
63555;SDS011;49700;48.072;7.800;2024-03-23T02:00:45;2.03;;;1.80;;
63555;SDS011;49700;48.072;7.800;2024-03-23T02:03:23;4.33;;;1.70;;
63555;SDS011;49700;48.072;7.800;2024-03-23T02:05:53;2.05;;;1.73;;
63555;SDS011;49700;48.072;7.800;2024-03-23T02:08:22;2.45;;;2.00;;
63555;SDS011;49700;48.072;7.800;2024-03-23T02:10:49;3.17;;;1.83;;
63555;SDS011;49700;48.072;7.800;2024-03-23T02:13:15;2.53;;;2.00;;
63555;SDS011;49700;48.072;7.800;2024-03-23T02:15:41;2.67;;;1.97;;
63555;SDS011;49700;48.072;7.800;2024-03-23T02:18:07;1.80;;;1.70;;
63555;SDS011;49700;48.072;7.800;2024-03-23T02:20:34;6.07;;;2.10;;
63555;SDS011;49700;48.072;7.800;2024-03-23T02:23:03;3.17;;;2.60;;
63555;SDS011;49700;48.072;7.800;2024-03-23T02:25:31;2.75;;;1.67;;
63555;SDS011;49700;48.072;7.800;2024-03-23T02:27:58;3.40;;;2.17;;
63555;SDS011;49700;48.072;7.800;2024-03-23T02:30:24;4.00;;;2.20;;
63555;SDS011;49700;48.072;7.800;2024-03-23T02:32:50;3.22;;;2.25;;
63555;SDS011;49700;48.072;7.800;2024-03-23T02:35:15;3.10;;;2.33;;
63555;SDS011;49700;48.072;7.800;2024-03-23T02:37:41;3.63;;;2.20;;
63555;SDS011;49700;48.072;7.800;2024-03-23T02:40:06;2.07;;;1.87;;
63555;SDS011;49700;48.072;7.800;2024-03-23T02:42:32;2.70;;;2.40;;
63555;SDS011;49700;48.072;7.800;2024-03-23T02:44:58;3.87;;;2.30;;
63555;SDS011;49700;48.072;7.800;2024-03-23T02:47:23;1.92;;;1.73;;
63555;SDS011;49700;48.072;7.800;2024-03-23T02:49:49;2.50;;;2.30;;
63555;SDS011;49700;48.072;7.800;2024-03-23T02:52:14;4.10;;;2.20;;
63555;SDS011;49700;48.072;7.800;2024-03-23T02:54:40;3.77;;;2.20;;
63555;SDS011;49700;48.072;7.800;2024-03-23T02:57:07;2.65;;;2.10;;
63555;SDS011;49700;48.072;7.800;2024-03-23T02:59:32;5.63;;;2.77;;
63555;SDS011;49700;48.072;7.800;2024-03-23T03:01:58;2.13;;;1.93;;
63555;SDS011;49700;48.072;7.800;2024-03-23T03:04:25;4.43;;;2.40;;
63555;SDS011;49700;48.072;7.800;2024-03-23T03:06:50;3.87;;;2.40;;
63555;SDS011;49700;48.072;7.800;2024-03-23T03:09:15;3.07;;;2.60;;
63555;SDS011;49700;48.072;7.800;2024-03-23T03:11:41;5.30;;;2.50;;
63555;SDS011;49700;48.072;7.800;2024-03-23T03:14:06;2.60;;;2.23;;
63555;SDS011;49700;48.072;7.800;2024-03-23T03:16:33;2.25;;;2.05;;
63555;SDS011;49700;48.072;7.800;2024-03-23T03:18:58;4.00;;;2.60;;
63555;SDS011;49700;48.072;7.800;2024-03-23T03:21:24;3.87;;;2.30;;
63555;SDS011;49700;48.072;7.800;2024-03-23T03:23:49;3.17;;;2.23;;
63555;SDS011;49700;48.072;7.800;2024-03-23T03:26:17;2.53;;;2.33;;
63555;SDS011;49700;48.072;7.800;2024-03-23T03:28:43;2.90;;;2.20;;
63555;SDS011;49700;48.072;7.800;2024-03-23T03:31:10;3.10;;;2.22;;
63555;SDS011;49700;48.072;7.800;2024-03-23T03:33:35;2.80;;;2.40;;
63555;SDS011;49700;48.072;7.800;2024-03-23T03:36:00;3.20;;;2.50;;
63555;SDS011;49700;48.072;7.800;2024-03-23T03:38:26;3.23;;;2.20;;
63555;SDS011;49700;48.072;7.800;2024-03-23T03:40:51;3.50;;;2.40;;
63555;SDS011;49700;48.072;7.800;2024-03-23T03:43:18;5.72;;;2.70;;
63555;SDS011;49700;48.072;7.800;2024-03-23T03:45:51;3.50;;;2.57;;
63555;SDS011;49700;48.072;7.800;2024-03-23T03:48:17;4.28;;;2.45;;
63555;SDS011;49700;48.072;7.800;2024-03-23T03:50:42;3.50;;;2.20;;
63555;SDS011;49700;48.072;7.800;2024-03-23T03:53:08;4.00;;;2.00;;
63555;SDS011;49700;48.072;7.800;2024-03-23T03:55:33;3.10;;;2.33;;
63555;SDS011;49700;48.072;7.800;2024-03-23T03:57:58;2.60;;;2.40;;
63555;SDS011;49700;48.072;7.800;2024-03-23T04:00:24;2.40;;;2.03;;
63555;SDS011;49700;48.072;7.800;2024-03-23T04:02:49;6.90;;;3.07;;
63555;SDS011;49700;48.072;7.800;2024-03-23T04:05:15;4.03;;;2.60;;
63555;SDS011;49700;48.072;7.800;2024-03-23T04:07:41;3.77;;;2.53;;
63555;SDS011;49700;48.072;7.800;2024-03-23T04:10:07;2.80;;;2.55;;
63555;SDS011;49700;48.072;7.800;2024-03-23T04:12:33;3.60;;;3.07;;
63555;SDS011;49700;48.072;7.800;2024-03-23T04:14:59;3.00;;;2.30;;
63555;SDS011;49700;48.072;7.800;2024-03-23T04:17:25;3.93;;;3.20;;
63555;SDS011;49700;48.072;7.800;2024-03-23T04:19:56;6.28;;;3.13;;
63555;SDS011;49700;48.072;7.800;2024-03-23T04:22:22;3.40;;;3.10;;
63555;SDS011;49700;48.072;7.800;2024-03-23T04:24:49;4.13;;;2.53;;
63555;SDS011;49700;48.072;7.800;2024-03-23T04:27:14;3.77;;;3.00;;
63555;SDS011;49700;48.072;7.800;2024-03-23T04:29:40;3.30;;;2.37;;
63555;SDS011;49700;48.072;7.800;2024-03-23T04:32:05;3.90;;;2.43;;
63555;SDS011;49700;48.072;7.800;2024-03-23T04:34:31;4.67;;;3.53;;
63555;SDS011;49700;48.072;7.800;2024-03-23T04:36:58;4.13;;;2.97;;
63555;SDS011;49700;48.072;7.800;2024-03-23T04:39:23;3.93;;;3.00;;
63555;SDS011;49700;48.072;7.800;2024-03-23T04:41:49;4.47;;;2.10;;
63555;SDS011;49700;48.072;7.800;2024-03-23T04:44:15;4.10;;;2.63;;
63555;SDS011;49700;48.072;7.800;2024-03-23T04:46:40;4.77;;;3.50;;
63555;SDS011;49700;48.072;7.800;2024-03-23T04:49:05;3.23;;;2.90;;
63555;SDS011;49700;48.072;7.800;2024-03-23T04:51:35;4.57;;;3.50;;
63555;SDS011;49700;48.072;7.800;2024-03-23T04:54:02;5.47;;;3.67;;
63555;SDS011;49700;48.072;7.800;2024-03-23T04:56:30;4.70;;;3.58;;
63555;SDS011;49700;48.072;7.800;2024-03-23T04:58:56;4.00;;;3.60;;
63555;SDS011;49700;48.072;7.800;2024-03-23T05:01:26;4.15;;;3.60;;
63555;SDS011;49700;48.072;7.800;2024-03-23T05:03:51;8.73;;;3.60;;
63555;SDS011;49700;48.072;7.800;2024-03-23T05:06:18;5.82;;;4.07;;
63555;SDS011;49700;48.072;7.800;2024-03-23T05:08:43;4.90;;;4.33;;
63555;SDS011;49700;48.072;7.800;2024-03-23T05:11:09;5.77;;;4.10;;
63555;SDS011;49700;48.072;7.800;2024-03-23T05:13:35;9.05;;;3.40;;
63555;SDS011;49700;48.072;7.800;2024-03-23T05:16:00;4.70;;;4.00;;
63555;SDS011;49700;48.072;7.800;2024-03-23T05:18:26;6.60;;;4.87;;
63555;SDS011;49700;48.072;7.800;2024-03-23T05:20:56;5.63;;;4.00;;
63555;SDS011;49700;48.072;7.800;2024-03-23T05:23:22;5.60;;;4.10;;
63555;SDS011;49700;48.072;7.800;2024-03-23T05:25:48;5.00;;;4.00;;
63555;SDS011;49700;48.072;7.800;2024-03-23T05:28:14;4.40;;;3.73;;
63555;SDS011;49700;48.072;7.800;2024-03-23T05:30:39;4.80;;;4.13;;
63555;SDS011;49700;48.072;7.800;2024-03-23T05:33:05;5.30;;;4.20;;
63555;SDS011;49700;48.072;7.800;2024-03-23T05:35:31;6.60;;;4.27;;
63555;SDS011;49700;48.072;7.800;2024-03-23T05:37:57;5.10;;;4.60;;
63555;SDS011;49700;48.072;7.800;2024-03-23T05:40:23;6.05;;;5.55;;
63555;SDS011;49700;48.072;7.800;2024-03-23T05:42:50;6.35;;;5.25;;
63555;SDS011;49700;48.072;7.800;2024-03-23T05:45:18;7.65;;;5.65;;
63555;SDS011;49700;48.072;7.800;2024-03-23T05:47:44;8.93;;;5.47;;
63555;SDS011;49700;48.072;7.800;2024-03-23T05:50:10;4.97;;;4.43;;
63555;SDS011;49700;48.072;7.800;2024-03-23T05:52:38;6.03;;;4.28;;
63555;SDS011;49700;48.072;7.800;2024-03-23T05:55:04;6.57;;;4.60;;
63555;SDS011;49700;48.072;7.800;2024-03-23T05:57:30;5.18;;;4.10;;
63555;SDS011;49700;48.072;7.800;2024-03-23T05:59:55;7.00;;;4.73;;
63555;SDS011;49700;48.072;7.800;2024-03-23T06:02:22;8.30;;;6.03;;
63555;SDS011;49700;48.072;7.800;2024-03-23T06:04:48;6.80;;;5.28;;
63555;SDS011;49700;48.072;7.800;2024-03-23T06:07:13;6.53;;;4.23;;
63555;SDS011;49700;48.072;7.800;2024-03-23T06:09:40;6.55;;;4.13;;
63555;SDS011;49700;48.072;7.800;2024-03-23T06:12:06;4.32;;;3.15;;
63555;SDS011;49700;48.072;7.800;2024-03-23T06:14:32;6.57;;;2.80;;
63555;SDS011;49700;48.072;7.800;2024-03-23T06:16:58;3.80;;;2.17;;
63555;SDS011;49700;48.072;7.800;2024-03-23T06:19:24;1.67;;;1.58;;
63555;SDS011;49700;48.072;7.800;2024-03-23T06:21:52;1.98;;;1.77;;
63555;SDS011;49700;48.072;7.800;2024-03-23T06:24:17;2.10;;;1.53;;
63555;SDS011;49700;48.072;7.800;2024-03-23T06:26:43;4.10;;;2.63;;
63555;SDS011;49700;48.072;7.800;2024-03-23T06:29:08;2.50;;;1.90;;
63555;SDS011;49700;48.072;7.800;2024-03-23T06:31:34;2.27;;;1.23;;
63555;SDS011;49700;48.072;7.800;2024-03-23T06:33:59;1.37;;;1.00;;
63555;SDS011;49700;48.072;7.800;2024-03-23T06:36:26;1.02;;;0.90;;
63555;SDS011;49700;48.072;7.800;2024-03-23T06:38:52;0.70;;;0.67;;
63555;SDS011;49700;48.072;7.800;2024-03-23T06:41:17;1.20;;;0.70;;
63555;SDS011;49700;48.072;7.800;2024-03-23T06:43:44;12.20;;;1.98;;
63555;SDS011;49700;48.072;7.800;2024-03-23T06:46:09;0.70;;;0.60;;
63555;SDS011;49700;48.072;7.800;2024-03-23T06:48:34;0.60;;;0.50;;
63555;SDS011;49700;48.072;7.800;2024-03-23T06:51:00;1.40;;;0.57;;
63555;SDS011;49700;48.072;7.800;2024-03-23T06:53:25;0.60;;;0.53;;
63555;SDS011;49700;48.072;7.800;2024-03-23T06:55:51;0.60;;;0.50;;
63555;SDS011;49700;48.072;7.800;2024-03-23T06:58:19;0.85;;;0.52;;
63555;SDS011;49700;48.072;7.800;2024-03-23T07:00:49;0.90;;;0.70;;
63555;SDS011;49700;48.072;7.800;2024-03-23T07:03:15;1.00;;;0.60;;
63555;SDS011;49700;48.072;7.800;2024-03-23T07:05:41;0.70;;;0.55;;
63555;SDS011;49700;48.072;7.800;2024-03-23T07:08:07;0.60;;;0.50;;
63555;SDS011;49700;48.072;7.800;2024-03-23T07:10:33;0.80;;;0.60;;
63555;SDS011;49700;48.072;7.800;2024-03-23T07:12:58;0.60;;;0.50;;
63555;SDS011;49700;48.072;7.800;2024-03-23T07:15:24;0.70;;;0.50;;
63555;SDS011;49700;48.072;7.800;2024-03-23T07:17:49;0.70;;;0.60;;
63555;SDS011;49700;48.072;7.800;2024-03-23T07:20:15;1.20;;;0.57;;
63555;SDS011;49700;48.072;7.800;2024-03-23T07:22:41;0.80;;;0.50;;
63555;SDS011;49700;48.072;7.800;2024-03-23T07:25:06;0.93;;;0.70;;
63555;SDS011;49700;48.072;7.800;2024-03-23T07:27:32;0.80;;;0.67;;
63555;SDS011;49700;48.072;7.800;2024-03-23T07:29:58;1.50;;;0.80;;
63555;SDS011;49700;48.072;7.800;2024-03-23T07:32:26;0.95;;;0.77;;
63555;SDS011;49700;48.072;7.800;2024-03-23T07:34:51;0.90;;;0.77;;
63555;SDS011;49700;48.072;7.800;2024-03-23T07:37:17;0.90;;;0.70;;
63555;SDS011;49700;48.072;7.800;2024-03-23T07:39:42;1.67;;;0.80;;
63555;SDS011;49700;48.072;7.800;2024-03-23T07:42:08;0.90;;;0.70;;
63555;SDS011;49700;48.072;7.800;2024-03-23T07:44:33;1.67;;;0.80;;
63555;SDS011;49700;48.072;7.800;2024-03-23T07:47:00;1.67;;;0.97;;
63555;SDS011;49700;48.072;7.800;2024-03-23T07:49:26;1.38;;;0.98;;
63555;SDS011;49700;48.072;7.800;2024-03-23T07:51:51;1.20;;;1.10;;
63555;SDS011;49700;48.072;7.800;2024-03-23T07:54:16;1.30;;;1.00;;
63555;SDS011;49700;48.072;7.800;2024-03-23T07:56:42;3.80;;;1.30;;
63555;SDS011;49700;48.072;7.800;2024-03-23T07:59:07;1.57;;;0.90;;
63555;SDS011;49700;48.072;7.800;2024-03-23T08:01:33;5.77;;;2.00;;
63555;SDS011;49700;48.072;7.800;2024-03-23T08:03:58;2.00;;;1.10;;
63555;SDS011;49700;48.072;7.800;2024-03-23T08:06:24;2.08;;;0.95;;
63555;SDS011;49700;48.072;7.800;2024-03-23T08:08:51;1.30;;;0.90;;
63555;SDS011;49700;48.072;7.800;2024-03-23T08:11:27;3.08;;;0.80;;
63555;SDS011;49700;48.072;7.800;2024-03-23T08:13:53;1.65;;;1.42;;
63555;SDS011;49700;48.072;7.800;2024-03-23T08:16:18;2.00;;;0.83;;
63555;SDS011;49700;48.072;7.800;2024-03-23T08:18:44;8.53;;;2.70;;
63555;SDS011;49700;48.072;7.800;2024-03-23T08:21:09;3.60;;;1.47;;
63555;SDS011;49700;48.072;7.800;2024-03-23T08:23:35;0.93;;;0.83;;
63555;SDS011;49700;48.072;7.800;2024-03-23T08:26:07;1.45;;;1.10;;
63555;SDS011;49700;48.072;7.800;2024-03-23T08:28:35;1.65;;;1.40;;
63555;SDS011;49700;48.072;7.800;2024-03-23T08:31:01;2.08;;;1.83;;
63555;SDS011;49700;48.072;7.800;2024-03-23T08:33:30;1.80;;;1.23;;
63555;SDS011;49700;48.072;7.800;2024-03-23T08:35:59;6.00;;;1.50;;
63555;SDS011;49700;48.072;7.800;2024-03-23T08:38:26;4.03;;;1.83;;
63555;SDS011;49700;48.072;7.800;2024-03-23T08:43:28;7.13;;;2.30;;
63555;SDS011;49700;48.072;7.800;2024-03-23T08:46:02;6.90;;;2.38;;
63555;SDS011;49700;48.072;7.800;2024-03-23T08:48:41;2.95;;;2.28;;
63555;SDS011;49700;48.072;7.800;2024-03-23T08:51:09;2.53;;;2.33;;
63555;SDS011;49700;48.072;7.800;2024-03-23T08:53:36;4.07;;;2.25;;
63555;SDS011;49700;48.072;7.800;2024-03-23T08:56:02;3.97;;;2.20;;
63555;SDS011;49700;48.072;7.800;2024-03-23T08:58:28;8.82;;;3.10;;
63555;SDS011;49700;48.072;7.800;2024-03-23T09:00:55;8.55;;;2.88;;
63555;SDS011;49700;48.072;7.800;2024-03-23T09:03:24;4.20;;;2.03;;
63555;SDS011;49700;48.072;7.800;2024-03-23T09:05:51;4.13;;;2.58;;
63555;SDS011;49700;48.072;7.800;2024-03-23T09:08:17;36.13;;;6.60;;
63555;SDS011;49700;48.072;7.800;2024-03-23T09:10:43;3.88;;;2.10;;
63555;SDS011;49700;48.072;7.800;2024-03-23T09:13:08;3.53;;;2.43;;
63555;SDS011;49700;48.072;7.800;2024-03-23T09:15:34;4.47;;;2.70;;
63555;SDS011;49700;48.072;7.800;2024-03-23T09:18:02;4.78;;;2.67;;
63555;SDS011;49700;48.072;7.800;2024-03-23T09:20:27;12.95;;;5.00;;
63555;SDS011;49700;48.072;7.800;2024-03-23T09:25:38;7.95;;;3.05;;
63555;SDS011;49700;48.072;7.800;2024-03-23T09:28:04;4.70;;;2.30;;
63555;SDS011;49700;48.072;7.800;2024-03-23T09:30:32;3.17;;;2.00;;
63555;SDS011;49700;48.072;7.800;2024-03-23T09:32:58;3.75;;;1.60;;
63555;SDS011;49700;48.072;7.800;2024-03-23T09:35:24;3.30;;;2.60;;
63555;SDS011;49700;48.072;7.800;2024-03-23T09:37:49;4.73;;;1.80;;
63555;SDS011;49700;48.072;7.800;2024-03-23T09:40:14;7.73;;;3.00;;
63555;SDS011;49700;48.072;7.800;2024-03-23T09:42:40;6.73;;;2.40;;
63555;SDS011;49700;48.072;7.800;2024-03-23T09:45:16;3.90;;;2.38;;
63555;SDS011;49700;48.072;7.800;2024-03-23T09:47:42;4.68;;;2.35;;
63555;SDS011;49700;48.072;7.800;2024-03-23T09:50:08;7.43;;;2.87;;
63555;SDS011;49700;48.072;7.800;2024-03-23T09:52:34;5.47;;;1.98;;
63555;SDS011;49700;48.072;7.800;2024-03-23T09:55:03;5.55;;;1.95;;
63555;SDS011;49700;48.072;7.800;2024-03-23T09:57:29;2.25;;;2.03;;
63555;SDS011;49700;48.072;7.800;2024-03-23T09:59:54;3.93;;;1.70;;
63555;SDS011;49700;48.072;7.800;2024-03-23T10:02:21;6.28;;;1.70;;
63555;SDS011;49700;48.072;7.800;2024-03-23T10:04:48;6.80;;;1.50;;
63555;SDS011;49700;48.072;7.800;2024-03-23T10:07:23;3.70;;;2.47;;
63555;SDS011;49700;48.072;7.800;2024-03-23T10:09:48;3.40;;;1.70;;
63555;SDS011;49700;48.072;7.800;2024-03-23T10:12:16;2.55;;;1.70;;
63555;SDS011;49700;48.072;7.800;2024-03-23T10:14:43;5.45;;;1.65;;
63555;SDS011;49700;48.072;7.800;2024-03-23T10:19:47;2.50;;;1.65;;
63555;SDS011;49700;48.072;7.800;2024-03-23T10:22:22;7.60;;;1.50;;
63555;SDS011;49700;48.072;7.800;2024-03-23T10:24:50;3.85;;;2.03;;
63555;SDS011;49700;48.072;7.800;2024-03-23T10:27:16;2.50;;;1.30;;
63555;SDS011;49700;48.072;7.800;2024-03-23T10:29:46;1.33;;;1.23;;
63555;SDS011;49700;48.072;7.800;2024-03-23T10:32:13;3.05;;;1.20;;
63555;SDS011;49700;48.072;7.800;2024-03-23T10:34:40;1.20;;;0.85;;
63555;SDS011;49700;48.072;7.800;2024-03-23T10:37:06;2.50;;;0.83;;
63555;SDS011;49700;48.072;7.800;2024-03-23T10:39:32;1.02;;;0.70;;
63555;SDS011;49700;48.072;7.800;2024-03-23T10:42:08;0.70;;;0.60;;
63555;SDS011;49700;48.072;7.800;2024-03-23T10:44:37;0.90;;;0.73;;
63555;SDS011;49700;48.072;7.800;2024-03-23T10:47:04;1.10;;;0.80;;
63555;SDS011;49700;48.072;7.800;2024-03-23T10:49:31;2.88;;;1.58;;
63555;SDS011;49700;48.072;7.800;2024-03-23T10:51:58;1.85;;;0.90;;
63555;SDS011;49700;48.072;7.800;2024-03-23T10:54:27;6.03;;;1.77;;
63555;SDS011;49700;48.072;7.800;2024-03-23T10:57:11;4.78;;;2.90;;
63555;SDS011;49700;48.072;7.800;2024-03-23T10:59:41;3.08;;;2.47;;
63555;SDS011;49700;48.072;7.800;2024-03-23T11:02:07;5.40;;;2.30;;
63555;SDS011;49700;48.072;7.800;2024-03-23T11:04:44;2.83;;;1.85;;
63555;SDS011;49700;48.072;7.800;2024-03-23T11:09:58;2.10;;;1.33;;
63555;SDS011;49700;48.072;7.800;2024-03-23T11:12:25;1.70;;;1.33;;
63555;SDS011;49700;48.072;7.800;2024-03-23T11:14:52;1.70;;;1.30;;
63555;SDS011;49700;48.072;7.800;2024-03-23T11:17:21;2.08;;;1.33;;
63555;SDS011;49700;48.072;7.800;2024-03-23T11:20:00;2.75;;;1.30;;
63555;SDS011;49700;48.072;7.800;2024-03-23T11:22:47;2.15;;;0.88;;
63555;SDS011;49700;48.072;7.800;2024-03-23T11:25:24;2.00;;;1.00;;
63555;SDS011;49700;48.072;7.800;2024-03-23T11:27:51;2.15;;;1.05;;
63555;SDS011;49700;48.072;7.800;2024-03-23T11:32:49;1.98;;;1.20;;
63555;SDS011;49700;48.072;7.800;2024-03-23T11:35:26;2.15;;;1.00;;
63555;SDS011;49700;48.072;7.800;2024-03-23T11:40:30;2.17;;;1.95;;
63555;SDS011;49700;48.072;7.800;2024-03-23T11:43:00;3.47;;;1.20;;
63555;SDS011;49700;48.072;7.800;2024-03-23T11:45:28;4.82;;;1.50;;
63555;SDS011;49700;48.072;7.800;2024-03-23T11:50:39;2.17;;;1.42;;
63555;SDS011;49700;48.072;7.800;2024-03-23T11:53:07;2.53;;;1.30;;
63555;SDS011;49700;48.072;7.800;2024-03-23T11:55:46;2.20;;;1.40;;
63555;SDS011;49700;48.072;7.800;2024-03-23T11:58:12;2.33;;;2.00;;
63555;SDS011;49700;48.072;7.800;2024-03-23T12:00:38;3.70;;;2.00;;
63555;SDS011;49700;48.072;7.800;2024-03-23T12:03:04;4.32;;;1.60;;
63555;SDS011;49700;48.072;7.800;2024-03-23T12:05:33;4.45;;;1.58;;
63555;SDS011;49700;48.072;7.800;2024-03-23T12:10:48;2.15;;;1.23;;
63555;SDS011;49700;48.072;7.800;2024-03-23T12:13:16;2.40;;;1.70;;
63555;SDS011;49700;48.072;7.800;2024-03-23T12:15:42;1.48;;;1.20;;
63555;SDS011;49700;48.072;7.800;2024-03-23T12:18:09;1.58;;;1.25;;
63555;SDS011;49700;48.072;7.800;2024-03-23T12:20:35;1.90;;;1.65;;
63555;SDS011;49700;48.072;7.800;2024-03-23T12:23:06;1.27;;;1.17;;
63555;SDS011;49700;48.072;7.800;2024-03-23T12:25:40;4.18;;;1.42;;
63555;SDS011;49700;48.072;7.800;2024-03-23T12:28:06;1.77;;;1.10;;
63555;SDS011;49700;48.072;7.800;2024-03-23T12:30:37;1.33;;;1.15;;
63555;SDS011;49700;48.072;7.800;2024-03-23T12:33:04;0.88;;;0.88;;
63555;SDS011;49700;48.072;7.800;2024-03-23T12:35:30;3.10;;;0.97;;
63555;SDS011;49700;48.072;7.800;2024-03-23T12:37:56;8.00;;;1.40;;
63555;SDS011;49700;48.072;7.800;2024-03-23T12:40:21;3.73;;;1.20;;
63555;SDS011;49700;48.072;7.800;2024-03-23T12:42:46;5.10;;;2.70;;
63555;SDS011;49700;48.072;7.800;2024-03-23T12:45:12;1.70;;;1.20;;
63555;SDS011;49700;48.072;7.800;2024-03-23T12:47:38;3.47;;;2.03;;
63555;SDS011;49700;48.072;7.800;2024-03-23T12:50:03;1.70;;;1.33;;
63555;SDS011;49700;48.072;7.800;2024-03-23T12:52:30;3.78;;;2.17;;
63555;SDS011;49700;48.072;7.800;2024-03-23T12:54:56;6.53;;;1.50;;
63555;SDS011;49700;48.072;7.800;2024-03-23T12:57:22;2.57;;;1.53;;
63555;SDS011;49700;48.072;7.800;2024-03-23T12:59:49;3.42;;;1.80;;
63555;SDS011;49700;48.072;7.800;2024-03-23T13:02:16;3.15;;;1.42;;
63555;SDS011;49700;48.072;7.800;2024-03-23T13:04:43;6.75;;;2.47;;
63555;SDS011;49700;48.072;7.800;2024-03-23T13:07:09;1.80;;;1.50;;
63555;SDS011;49700;48.072;7.800;2024-03-23T13:09:34;2.10;;;1.40;;
63555;SDS011;49700;48.072;7.800;2024-03-23T13:12:00;1.20;;;1.10;;
63555;SDS011;49700;48.072;7.800;2024-03-23T13:14:25;1.50;;;1.40;;
63555;SDS011;49700;48.072;7.800;2024-03-23T13:16:50;3.77;;;1.20;;
63555;SDS011;49700;48.072;7.800;2024-03-23T13:19:16;1.43;;;1.10;;
63555;SDS011;49700;48.072;7.800;2024-03-23T13:21:46;2.88;;;1.20;;
63555;SDS011;49700;48.072;7.800;2024-03-23T13:24:11;3.43;;;1.70;;
63555;SDS011;49700;48.072;7.800;2024-03-23T13:26:36;1.77;;;0.90;;
63555;SDS011;49700;48.072;7.800;2024-03-23T13:29:02;2.10;;;1.60;;
63555;SDS011;49700;48.072;7.800;2024-03-23T13:31:27;1.53;;;1.27;;
63555;SDS011;49700;48.072;7.800;2024-03-23T13:33:53;3.43;;;1.30;;
63555;SDS011;49700;48.072;7.800;2024-03-23T13:36:18;1.83;;;1.40;;
63555;SDS011;49700;48.072;7.800;2024-03-23T13:38:43;1.47;;;1.13;;
63555;SDS011;49700;48.072;7.800;2024-03-23T13:41:09;3.10;;;1.20;;
63555;SDS011;49700;48.072;7.800;2024-03-23T13:43:37;6.05;;;1.52;;
63555;SDS011;49700;48.072;7.800;2024-03-23T13:46:03;2.23;;;1.67;;
63555;SDS011;49700;48.072;7.800;2024-03-23T13:48:28;4.03;;;1.57;;
63555;SDS011;49700;48.072;7.800;2024-03-23T13:51:00;5.40;;;1.67;;
63555;SDS011;49700;48.072;7.800;2024-03-23T13:53:26;3.33;;;1.88;;
63555;SDS011;49700;48.072;7.800;2024-03-23T13:55:51;1.30;;;1.20;;
63555;SDS011;49700;48.072;7.800;2024-03-23T13:58:18;1.15;;;1.05;;
63555;SDS011;49700;48.072;7.800;2024-03-23T14:00:43;2.23;;;1.30;;
63555;SDS011;49700;48.072;7.800;2024-03-23T14:03:09;2.63;;;1.30;;
63555;SDS011;49700;48.072;7.800;2024-03-23T14:05:38;4.47;;;1.70;;
63555;SDS011;49700;48.072;7.800;2024-03-23T14:08:08;4.32;;;1.50;;
63555;SDS011;49700;48.072;7.800;2024-03-23T14:10:34;3.20;;;1.42;;
63555;SDS011;49700;48.072;7.800;2024-03-23T14:13:03;2.08;;;1.83;;
63555;SDS011;49700;48.072;7.800;2024-03-23T14:15:29;2.10;;;1.57;;
63555;SDS011;49700;48.072;7.800;2024-03-23T14:17:58;2.00;;;0.90;;
63555;SDS011;49700;48.072;7.800;2024-03-23T14:20:24;2.10;;;1.03;;
63555;SDS011;49700;48.072;7.800;2024-03-23T14:22:50;3.20;;;1.73;;
63555;SDS011;49700;48.072;7.800;2024-03-23T14:25:16;4.77;;;1.30;;
63555;SDS011;49700;48.072;7.800;2024-03-23T14:27:45;1.17;;;0.90;;
63555;SDS011;49700;48.072;7.800;2024-03-23T14:30:11;1.10;;;1.00;;
63555;SDS011;49700;48.072;7.800;2024-03-23T14:32:37;1.60;;;0.80;;
63555;SDS011;49700;48.072;7.800;2024-03-23T14:35:04;3.00;;;0.80;;
63555;SDS011;49700;48.072;7.800;2024-03-23T14:37:30;2.47;;;1.15;;
63555;SDS011;49700;48.072;7.800;2024-03-23T14:39:56;3.65;;;1.10;;
63555;SDS011;49700;48.072;7.800;2024-03-23T14:42:22;1.67;;;0.90;;
63555;SDS011;49700;48.072;7.800;2024-03-23T14:44:49;0.80;;;0.75;;
63555;SDS011;49700;48.072;7.800;2024-03-23T14:47:14;1.10;;;0.90;;
63555;SDS011;49700;48.072;7.800;2024-03-23T14:49:40;2.03;;;0.90;;
63555;SDS011;49700;48.072;7.800;2024-03-23T14:52:06;1.17;;;0.70;;
63555;SDS011;49700;48.072;7.800;2024-03-23T14:54:32;1.88;;;0.80;;
63555;SDS011;49700;48.072;7.800;2024-03-23T14:56:58;6.80;;;1.00;;
63555;SDS011;49700;48.072;7.800;2024-03-23T14:59:23;1.73;;;1.00;;
63555;SDS011;49700;48.072;7.800;2024-03-23T15:01:49;1.60;;;0.80;;
63555;SDS011;49700;48.072;7.800;2024-03-23T15:04:14;1.80;;;0.70;;
63555;SDS011;49700;48.072;7.800;2024-03-23T15:06:40;2.38;;;0.90;;
63555;SDS011;49700;48.072;7.800;2024-03-23T15:09:05;2.10;;;1.10;;
63555;SDS011;49700;48.072;7.800;2024-03-23T15:11:33;1.25;;;0.90;;
63555;SDS011;49700;48.072;7.800;2024-03-23T15:13:58;1.30;;;0.80;;
63555;SDS011;49700;48.072;7.800;2024-03-23T15:16:23;0.90;;;0.80;;
63555;SDS011;49700;48.072;7.800;2024-03-23T15:18:49;1.60;;;0.80;;
63555;SDS011;49700;48.072;7.800;2024-03-23T15:21:14;1.50;;;1.10;;
63555;SDS011;49700;48.072;7.800;2024-03-23T15:23:45;1.38;;;1.10;;
63555;SDS011;49700;48.072;7.800;2024-03-23T15:26:10;2.40;;;0.90;;
63555;SDS011;49700;48.072;7.800;2024-03-23T15:28:36;1.00;;;0.90;;
63555;SDS011;49700;48.072;7.800;2024-03-23T15:31:20;1.55;;;0.90;;
63555;SDS011;49700;48.072;7.800;2024-03-23T15:33:45;3.27;;;0.97;;
63555;SDS011;49700;48.072;7.800;2024-03-23T15:36:10;2.70;;;0.90;;
63555;SDS011;49700;48.072;7.800;2024-03-23T15:38:36;1.83;;;0.70;;
63555;SDS011;49700;48.072;7.800;2024-03-23T15:41:04;9.63;;;0.90;;
63555;SDS011;49700;48.072;7.800;2024-03-23T15:43:31;0.80;;;0.80;;
63555;SDS011;49700;48.072;7.800;2024-03-23T15:45:57;2.95;;;1.17;;
63555;SDS011;49700;48.072;7.800;2024-03-23T15:48:27;1.00;;;0.75;;
63555;SDS011;49700;48.072;7.800;2024-03-23T15:50:53;0.80;;;0.73;;
63555;SDS011;49700;48.072;7.800;2024-03-23T15:53:23;3.67;;;0.90;;
63555;SDS011;49700;48.072;7.800;2024-03-23T15:56:02;1.50;;;1.10;;
63555;SDS011;49700;48.072;7.800;2024-03-23T15:58:29;1.27;;;0.85;;
63555;SDS011;49700;48.072;7.800;2024-03-23T16:03:22;1.60;;;1.03;;